Time;durP1;ratioP1;P1;durP2;ratioP2;P2;SDS_P1;SDS_P2;PMS_P1;PMS_P2;Temp;Humidity;BMP_temperature;BMP_pressure;BME280_temperature;BME280_humidity;BME280_pressure;Samples;Min_cycle;Max_cycle;Signal;HPM_P1;HPM_P2
2021/12/13 00:00:21;;;;;;;13.65;8.45;;;;;;;10.25;76.70;102467.28;5069259;28;20072;-58
2021/12/13 00:02:56;;;;;;;10.55;8.35;;;;;;;10.24;76.94;102462.94;5061134;28;20098;-58
2021/12/13 00:05:31;;;;;;;10.75;7.45;;;;;;;10.24;76.34;102466.44;5067040;28;20041;-58
2021/12/13 00:08:04;;;;;;;13.82;7.82;;;;;;;10.24;76.59;102468.31;5058712;28;20083;-57
2021/12/13 00:10:41;;;;;;;17.13;8.70;;;;;;;10.24;76.50;102473.69;5065877;28;20390;-58
2021/12/13 00:13:13;;;;;;;11.70;7.65;;;;;;;10.24;76.29;102471.81;5063889;28;20049;-58
2021/12/13 00:15:48;;;;;;;12.07;7.97;;;;;;;10.23;76.81;102464.78;5062663;28;20072;-57
2021/12/13 00:18:25;;;;;;;10.80;8.40;;;;;;;10.24;76.44;102471.00;5064496;28;20109;-58
2021/12/13 00:21:07;;;;;;;11.73;7.90;;;;;;;10.24;76.08;102461.06;5064681;28;20076;-58
2021/12/13 00:23:45;;;;;;;11.35;7.88;;;;;;;10.26;76.54;102469.78;5066395;28;20064;-57
2021/12/13 00:26:21;;;;;;;13.80;7.78;;;;;;;10.25;76.20;102472.66;5071859;28;20040;-51
2021/12/13 00:28:49;;;;;;;;;;;;;;;10.25;76.62;102476.19;5070880;28;20481;-57
2021/12/13 00:31:32;;;;;;;13.27;7.85;;;;;;;10.24;76.62;102474.50;5065973;28;19920;-57
2021/12/13 00:34:19;;;;;;;14.38;7.93;;;;;;;10.25;76.05;102475.34;5064773;28;20597;-57
2021/12/13 00:36:52;;;;;;;14.20;7.68;;;;;;;10.25;76.23;102475.34;5065352;28;20091;-58
2021/12/13 00:39:25;;;;;;;10.77;7.97;;;;;;;10.25;76.63;102464.59;5067265;28;20075;-56
2021/12/13 00:41:54;;;;;;;10.98;8.00;;;;;;;10.25;76.42;102475.34;5064621;28;20574;-57
2021/12/13 00:44:25;;;;;;;12.48;7.85;;;;;;;10.26;76.31;102475.16;5060724;28;20180;-58
2021/12/13 00:46:56;;;;;;;13.10;7.40;;;;;;;10.26;76.75;102477.84;5070199;28;20080;-57
2021/12/13 00:49:27;;;;;;;10.88;7.43;;;;;;;10.24;76.57;102482.56;5060485;28;20041;-57
2021/12/13 00:51:59;;;;;;;13.25;8.30;;;;;;;10.24;76.48;102481.72;5065721;28;20071;-58
2021/12/13 00:54:32;;;;;;;10.85;6.90;;;;;;;10.24;76.23;102482.56;5067067;28;20056;-58
2021/12/13 00:57:18;;;;;;;11.70;7.82;;;;;;;10.24;76.27;102481.72;5070147;28;20463;-56
2021/12/13 00:59:50;;;;;;;12.35;8.32;;;;;;;10.22;76.15;102481.06;5068413;28;20072;-57
2021/12/13 01:02:25;;;;;;;12.05;7.50;;;;;;;10.22;76.80;102486.44;5072234;28;20048;-58
2021/12/13 01:05:00;;;;;;;11.52;7.50;;;;;;;10.22;76.47;102484.59;5068794;28;20048;-58
2021/12/13 01:08:02;;;;;;;12.55;6.72;;;;;;;10.21;76.33;102499.06;5065877;28;20075;-56
2021/12/13 01:10:54;;;;;;;10.20;7.63;;;;;;;10.20;76.67;102486.63;5064714;28;20044;-57
2021/12/13 01:13:29;;;;;;;10.93;7.45;;;;;;;10.20;76.72;102492.00;5066233;28;20475;-58
2021/12/13 01:16:09;;;;;;;11.82;7.68;;;;;;;10.21;76.37;102490.16;5065950;28;20068;-55
2021/12/13 01:18:58;;;;;;;12.63;8.43;;;;;;;10.20;76.34;102494.69;5068405;28;20078;-58
2021/12/13 01:21:38;;;;;;;12.52;7.65;;;;;;;10.19;76.61;102498.34;5064724;28;20049;-57
2021/12/13 01:24:14;;;;;;;13.70;7.47;;;;;;;10.16;76.51;102496.03;5069043;28;20087;-49
2021/12/13 01:26:49;;;;;;;11.27;7.78;;;;;;;10.09;76.05;102487.84;5064514;28;20052;-55
2021/12/13 01:29:20;;;;;;;13.63;8.30;;;;;;;10.18;76.08;102499.38;5062633;28;20076;-57
2021/12/13 01:31:52;;;;;;;10.95;7.80;;;;;;;10.17;76.00;102500.38;5075133;28;20048;-57
2021/12/13 01:34:22;;;;;;;11.20;7.75;;;;;;;10.16;76.57;102506.78;5069702;28;20418;-58
2021/12/13 01:37:01;;;;;;;12.30;8.38;;;;;;;10.17;76.12;102505.75;5065157;28;20049;-56
2021/12/13 01:39:33;;;;;;;11.52;8.57;;;;;;;10.17;76.07;102510.31;5069036;28;20131;-57
2021/12/13 01:42:04;;;;;;;11.05;7.55;;;;;;;10.16;76.29;102512.16;5068246;28;20101;-58
2021/12/13 01:44:35;;;;;;;11.77;7.65;;;;;;;10.16;75.99;102506.78;5069210;28;20041;-57
2021/12/13 01:47:06;;;;;;;11.30;7.45;;;;;;;10.18;76.03;102506.59;5064970;28;20049;-57
2021/12/13 01:49:37;;;;;;;11.65;9.18;;;;;;;10.17;76.42;102507.63;5068121;28;20382;-55
2021/12/13 01:52:15;;;;;;;11.45;8.70;;;;;;;10.17;76.03;102515.69;5065612;28;20113;-58
2021/12/13 01:54:45;;;;;;;12.52;8.50;;;;;;;10.08;76.09;102507.66;5062431;28;20466;-58
2021/12/13 01:57:24;;;;;;;11.27;8.18;;;;;;;10.17;76.31;102518.34;5063334;28;20164;-57
2021/12/13 02:00:07;;;;;;;12.18;8.48;;;;;;;10.17;76.46;102515.69;5069980;28;20049;-57
2021/12/13 02:02:39;;;;;;;12.70;8.52;;;;;;;10.17;76.13;102515.69;5069399;28;20067;-58
2021/12/13 02:05:10;;;;;;;12.15;8.57;;;;;;;10.16;76.45;102512.16;5065132;28;20053;-58
2021/12/13 02:07:44;;;;;;;13.60;8.98;;;;;;;10.17;76.50;102516.50;5070790;28;20049;-58
2021/12/13 02:10:18;;;;;;;12.55;8.70;;;;;;;10.18;76.48;102518.19;5064028;28;20045;-58
2021/12/13 02:12:54;;;;;;;13.45;9.65;;;;;;;10.17;76.34;102516.50;5064174;28;20084;-57
2021/12/13 02:18:11;;;;;;;14.90;9.90;;;;;;;10.10;76.09;102504.81;5068366;28;20041;-58
2021/12/13 02:20:43;;;;;;;16.35;8.43;;;;;;;10.17;76.35;102516.50;5066844;28;20080;-58
2021/12/13 02:23:13;;;;;;;13.95;9.50;;;;;;;10.15;76.38;102506.97;5067509;28;20181;-57
2021/12/13 02:25:45;;;;;;;13.50;9.55;;;;;;;10.16;76.49;102514.00;5063178;28;20072;-58
2021/12/13 02:28:17;;;;;;;12.50;8.82;;;;;;;10.15;75.99;102502.41;5065588;28;20077;-54
2021/12/13 02:30:50;;;;;;;12.15;8.73;;;;;;;10.14;75.99;102500.75;5067786;28;20072;-57
2021/12/13 02:33:21;;;;;;;12.15;8.65;;;;;;;10.15;76.41;102506.97;5077513;28;20080;-56
2021/12/13 02:35:52;;;;;;;12.38;8.93;;;;;;;10.14;75.78;102511.50;5061405;28;20099;-57
2021/12/13 02:38:23;;;;;;;12.95;8.95;;;;;;;10.13;75.62;102507.13;5066994;28;20053;-57
2021/12/13 02:40:53;;;;;;;11.43;8.57;;;;;;;10.12;75.71;102508.16;5065995;28;20080;-58
2021/12/13 02:43:24;;;;;;;14.90;9.02;;;;;;;10.03;75.68;102491.25;5064609;28;20080;-57
2021/12/13 02:45:54;;;;;;;16.63;10.07;;;;;;;10.11;76.17;102506.47;5063307;28;20128;-58
2021/12/13 02:48:25;;;;;;;15.75;10.10;;;;;;;10.11;76.27;102519.91;5063051;28;20052;-58
2021/12/13 02:50:57;;;;;;;12.40;9.13;;;;;;;10.11;75.91;102518.06;5060909;28;20076;-57
2021/12/13 02:53:31;;;;;;;13.70;10.13;;;;;;;10.10;75.74;102521.75;5064589;28;20044;-58
2021/12/13 02:56:00;;;;;;;12.80;9.20;;;;;;;10.10;76.15;102518.22;5060393;28;20045;-58
2021/12/13 02:58:30;;;;;;;15.57;9.80;;;;;;;10.08;76.02;102513.03;5064707;28;20466;-58
2021/12/13 03:01:02;;;;;;;15.82;10.70;;;;;;;10.07;76.16;102516.75;5063070;28;20059;-58
2021/12/13 03:03:33;;;;;;;13.43;9.77;;;;;;;10.07;76.36;102519.44;5064166;28;20151;-57
2021/12/13 03:06:05;;;;;;;14.55;10.38;;;;;;;10.08;76.37;102520.25;5062129;28;20049;-57
2021/12/13 03:08:40;;;;;;;18.13;10.50;;;;;;;10.07;75.87;102519.44;5065647;28;20108;-57
2021/12/13 03:11:13;;;;;;;14.82;9.90;;;;;;;10.07;76.13;102523.97;5063772;28;20111;-57
2021/12/13 03:13:41;;;;;;;16.35;11.30;;;;;;;10.06;76.43;102524.97;5065200;28;20060;-58
2021/12/13 03:16:15;;;;;;;13.15;9.80;;;;;;;10.06;76.27;102519.59;5063124;28;20124;-52
2021/12/13 03:18:51;;;;;;;14.05;10.23;;;;;;;10.06;76.05;102516.91;5055960;28;20068;-57
2021/12/13 03:21:43;;;;;;;17.42;10.85;;;;;;;10.05;76.17;102513.41;5068836;28;20052;-57
2021/12/13 03:24:37;;;;;;;16.92;10.68;;;;;;;10.04;75.91;102517.09;5064021;28;20080;-58
2021/12/13 03:27:27;;;;;;;16.50;11.40;;;;;;;10.05;76.27;102520.63;5062902;28;20044;-58
2021/12/13 03:30:01;;;;;;;14.02;9.75;;;;;;;10.05;76.15;102521.47;5064410;28;20072;-58
2021/12/13 03:32:35;;;;;;;14.63;10.20;;;;;;;10.06;76.07;102516.91;5063688;28;20044;-57
2021/12/13 03:35:13;;;;;;;15.70;10.15;;;;;;;10.07;75.93;102518.59;5069439;28;20040;-58
2021/12/13 03:37:43;;;;;;;15.77;9.85;;;;;;;10.07;76.29;102524.81;5068916;28;20488;-56
2021/12/13 03:40:16;;;;;;;14.65;9.82;;;;;;;10.06;76.04;102527.66;5075046;28;20045;-58
2021/12/13 03:42:48;;;;;;;14.55;10.27;;;;;;;10.06;76.26;102525.81;5069933;28;20159;-58
2021/12/13 03:45:20;;;;;;;15.93;10.52;;;;;;;10.07;76.23;102529.34;5068743;28;20086;-58
2021/12/13 03:47:51;;;;;;;17.67;11.32;;;;;;;10.07;76.37;102535.53;5073340;28;20064;-58
2021/12/13 03:50:28;;;;;;;16.38;11.13;;;;;;;10.07;76.41;102530.16;5064695;28;20049;-57
2021/12/13 03:52:59;;;;;;;15.50;10.85;;;;;;;10.06;76.47;102527.66;5065263;28;20076;-57
2021/12/13 03:55:32;;;;;;;17.67;10.98;;;;;;;10.06;76.25;102528.50;5065032;28;20086;-58
2021/12/13 03:58:03;;;;;;;15.43;10.52;;;;;;;10.07;76.31;102534.72;5062859;28;20459;-58
2021/12/13 04:00:34;;;;;;;16.00;10.95;;;;;;;10.05;76.21;102529.50;5066381;28;20056;-57
2021/12/13 04:03:07;;;;;;;17.80;10.32;;;;;;;10.05;75.90;102521.47;5062500;28;20116;-57
2021/12/13 04:05:36;;;;;;;16.13;10.18;;;;;;;10.05;75.88;102531.38;5068586;28;20048;-57
2021/12/13 04:08:08;;;;;;;15.68;10.57;;;;;;;10.04;75.65;102529.69;5068258;28;20052;-56
2021/12/13 04:10:40;;;;;;;16.30;10.90;;;;;;;10.03;75.52;102528.03;5062299;28;20394;-57
2021/12/13 04:13:13;;;;;;;16.20;10.27;;;;;;;10.02;75.74;102529.88;5067251;28;20081;-57
2021/12/13 04:15:54;;;;;;;15.85;11.00;;;;;;;10.03;75.61;102525.34;5064474;28;20044;-57
2021/12/13 04:18:30;;;;;;;15.27;9.95;;;;;;;10.02;76.01;102526.34;5067631;28;20063;-57
2021/12/13 04:21:05;;;;;;;13.55;9.65;;;;;;;10.02;75.90;102531.72;5067963;28;20068;-57
2021/12/13 04:23:35;;;;;;;15.80;10.05;;;;;;;10.02;76.11;102532.56;5063110;28;20037;-51
2021/12/13 04:26:08;;;;;;;12.50;9.00;;;;;;;10.01;76.13;102528.19;5055658;28;20076;-58
2021/12/13 04:28:42;;;;;;;16.65;10.38;;;;;;;10.00;75.60;102531.91;5061671;28;20049;-57
2021/12/13 04:31:14;;;;;;;15.95;9.57;;;;;;;10.00;76.24;102537.25;5065524;28;20048;-57
2021/12/13 04:33:46;;;;;;;14.02;9.40;;;;;;;9.99;76.03;102538.28;5068110;28;20067;-58
2021/12/13 04:36:21;;;;;;;16.70;10.23;;;;;;;9.99;75.82;102535.59;5064760;28;20353;-57
2021/12/13 04:38:52;;;;;;;13.48;9.43;;;;;;;10.00;75.89;102539.13;5070671;28;20044;-57
2021/12/13 04:41:28;;;;;;;16.63;10.30;;;;;;;9.99;76.33;102537.44;5062599;28;20049;-57
2021/12/13 04:43:59;;;;;;;16.37;10.50;;;;;;;10.00;76.16;102536.44;5063821;28;20073;-58
2021/12/13 04:46:29;;;;;;;13.63;10.10;;;;;;;9.98;76.24;102541.13;5070652;28;20075;-58
2021/12/13 04:49:03;;;;;;;15.00;10.18;;;;;;;9.97;76.34;102534.09;5066477;28;20049;-53
2021/12/13 04:51:40;;;;;;;14.63;10.05;;;;;;;9.97;76.17;102534.94;5067720;28;20071;-58
2021/12/13 04:54:10;;;;;;;14.40;8.40;;;;;;;9.97;76.06;102532.25;5067678;28;20076;-57
2021/12/13 04:56:40;;;;;;;14.27;9.73;;;;;;;9.97;75.73;102536.78;5065506;28;20160;-57
2021/12/13 04:59:10;;;;;;;13.30;9.20;;;;;;;9.97;76.02;102534.94;5067742;28;20076;-57
2021/12/13 05:01:38;;;;;;;15.50;9.90;;;;;;;9.96;76.00;102530.56;5069355;28;20132;-57
2021/12/13 05:04:08;;;;;;;14.65;9.50;;;;;;;9.96;76.02;102522.50;5062551;28;20049;-57
2021/12/13 05:06:39;;;;;;;15.23;10.02;;;;;;;9.96;76.12;102524.38;5073503;28;20094;-57
2021/12/13 05:09:12;;;;;;;18.10;9.65;;;;;;;9.97;75.77;102532.25;5066491;28;20053;-49
2021/12/13 05:11:46;;;;;;;14.85;9.63;;;;;;;9.98;75.77;102535.78;5068942;28;20053;-52
2021/12/13 05:14:16;;;;;;;15.13;8.88;;;;;;;9.98;75.97;102533.91;5057619;28;20038;-57
2021/12/13 05:16:48;;;;;;;14.93;10.00;;;;;;;9.99;75.80;102527.53;5070176;28;20052;-57
2021/12/13 05:19:24;;;;;;;12.95;9.00;;;;;;;9.98;76.03;102535.78;5072112;28;20171;-58
2021/12/13 05:21:53;;;;;;;12.38;8.52;;;;;;;9.97;75.88;102537.63;5064876;28;20431;-56
2021/12/13 05:24:25;;;;;;;15.43;8.82;;;;;;;10.00;76.13;102539.13;5063407;28;20047;-58
2021/12/13 05:26:58;;;;;;;15.18;9.73;;;;;;;9.99;75.82;102535.59;5058780;28;20045;-57
2021/12/13 05:29:31;;;;;;;14.25;9.38;;;;;;;10.00;75.90;102539.13;5058810;28;20041;-57
2021/12/13 05:32:02;;;;;;;12.20;8.85;;;;;;;10.00;76.00;102541.81;5065916;28;20048;-57
2021/12/13 05:34:33;;;;;;;13.23;9.23;;;;;;;10.00;75.81;102539.13;5068447;28;20083;-57
2021/12/13 05:37:04;;;;;;;13.18;8.63;;;;;;;9.99;76.11;102540.13;5066698;28;20041;-57
2021/12/13 05:39:33;;;;;;;16.15;9.32;;;;;;;9.98;76.30;102543.81;5066760;28;20048;-56
2021/12/13 05:42:08;;;;;;;11.55;8.60;;;;;;;9.84;75.79;102523.09;5073558;28;20053;-57
2021/12/13 05:44:42;;;;;;;12.75;9.52;;;;;;;9.97;75.89;102539.47;5067896;28;20079;-57
2021/12/13 05:47:21;;;;;;;12.73;9.20;;;;;;;9.94;76.03;102546.03;5069186;28;20044;-58
2021/12/13 05:49:52;;;;;;;14.77;9.20;;;;;;;9.93;75.90;102538.16;5073170;28;20049;-56
2021/12/13 05:52:25;;;;;;;12.35;8.25;;;;;;;9.94;76.12;102535.28;5075890;28;20056;-57
2021/12/13 05:54:56;;;;;;;14.57;7.90;;;;;;;9.93;75.69;102544.34;5073161;28;20084;-58
2021/12/13 05:57:29;;;;;;;13.15;8.27;;;;;;;9.92;75.70;102537.31;5074776;28;20049;-58
2021/12/13 06:00:00;;;;;;;13.95;9.13;;;;;;;9.93;75.89;102538.97;5068948;28;20190;-58
2021/12/13 06:03:04;;;;;;;12.68;8.27;;;;;;;9.93;75.51;102541.66;5069228;28;20052;-58
2021/12/13 06:05:35;;;;;;;12.68;7.88;;;;;;;9.93;75.43;102544.34;5069429;28;20453;-55
2021/12/13 06:08:07;;;;;;;11.95;8.32;;;;;;;9.84;75.88;102536.50;5065302;28;20130;-58
2021/12/13 06:10:42;;;;;;;10.57;7.32;;;;;;;9.93;75.75;102559.63;5064062;28;20040;-57
2021/12/13 06:13:18;;;;;;;11.60;7.72;;;;;;;9.92;75.47;102550.75;5063052;28;20072;-58
2021/12/13 06:15:46;;;;;;;11.07;7.73;;;;;;;9.92;75.41;102545.38;5079101;28;20099;-58
2021/12/13 06:18:20;;;;;;;12.48;8.27;;;;;;;9.91;75.87;102551.75;5062442;28;20116;-58
2021/12/13 06:20:59;;;;;;;13.18;8.63;;;;;;;9.91;75.88;102548.22;5064365;28;20053;-58
2021/12/13 06:23:29;;;;;;;11.27;7.55;;;;;;;9.90;75.56;102555.44;5065806;28;20546;-58
2021/12/13 06:26:02;;;;;;;12.50;7.15;;;;;;;9.89;75.61;102555.63;5070908;28;20068;-57
2021/12/13 06:28:34;;;;;;;11.15;7.95;;;;;;;9.89;75.41;102561.84;5067342;28;20052;-50
2021/12/13 06:31:05;;;;;;;12.80;7.38;;;;;;;9.88;75.54;102560.16;5068268;28;20071;-59
2021/12/13 06:33:46;;;;;;;10.68;7.78;;;;;;;9.88;75.59;102552.09;5067982;28;20048;-51
2021/12/13 06:36:16;;;;;;;10.32;7.50;;;;;;;9.87;75.55;102557.66;5062974;28;20049;-59
2021/12/13 06:38:48;;;;;;;12.18;8.57;;;;;;;9.89;76.24;102561.84;5065351;28;20398;-61
2021/12/13 06:41:21;;;;;;;10.45;7.32;;;;;;;9.90;75.76;102568.03;5064083;28;20064;-61
2021/12/13 06:43:54;;;;;;;15.23;8.20;;;;;;;9.91;75.85;102572.41;5064206;28;20265;-61
2021/12/13 06:46:41;;;;;;;12.23;7.60;;;;;;;9.91;76.02;102575.09;5064820;28;20080;-60
2021/12/13 06:49:16;;;;;;;10.07;7.25;;;;;;;9.91;75.66;102567.88;5055254;28;20115;-61
2021/12/13 06:51:47;;;;;;;12.20;8.13;;;;;;;9.91;76.11;102573.25;5063749;28;20483;-59
2021/12/13 06:54:21;;;;;;;9.75;6.93;;;;;;;9.92;75.84;102564.16;5074339;28;20083;-61
2021/12/13 06:56:56;;;;;;;11.50;7.75;;;;;;;9.91;75.96;102569.72;5070903;28;20059;-61
2021/12/13 06:59:26;;;;;;;10.77;6.85;;;;;;;9.93;75.51;102573.06;5064545;28;20483;-61
2021/12/13 07:02:02;;;;;;;9.63;6.47;;;;;;;9.93;76.05;102578.44;4374168;28;10000809;-60
2021/12/13 07:04:38;;;;;;;;;;;;;;;9.92;75.49;102579.44;5064014;28;20045;-62
2021/12/13 07:07:12;;;;;;;11.00;6.68;;;;;;;9.93;75.43;102583.81;5076833;28;19991;-63
2021/12/13 07:09:40;;;;;;;10.30;6.80;;;;;;;9.92;75.90;102587.50;5059368;28;20041;-58
2021/12/13 07:12:16;;;;;;;9.35;7.15;;;;;;;9.90;76.22;102585.00;5059615;28;20056;-62
2021/12/13 07:14:46;;;;;;;10.20;6.35;;;;;;;9.89;75.89;102582.47;5050382;28;20099;-65
2021/12/13 07:17:19;;;;;;;9.13;6.68;;;;;;;9.89;75.59;102583.31;5063285;28;20113;-61
2021/12/13 07:19:50;;;;;;;10.07;6.97;;;;;;;9.89;75.61;102586.00;5067790;28;20136;-61
2021/12/13 07:22:22;;;;;;;10.80;6.68;;;;;;;9.89;76.02;102585.16;5063657;28;20068;-61
2021/12/13 07:24:53;;;;;;;12.82;6.63;;;;;;;9.88;75.81;102597.75;5055164;28;20080;-61
2021/12/13 07:27:23;;;;;;;11.15;6.80;;;;;;;9.89;75.55;102598.59;5063818;28;20055;-56
2021/12/13 07:29:56;;;;;;;10.20;6.35;;;;;;;9.88;75.85;102596.91;5063978;28;20056;-61
2021/12/13 07:32:28;;;;;;;10.52;7.90;;;;;;;9.88;75.33;102600.44;5062981;28;20052;-62
2021/12/13 07:35:01;;;;;;;11.45;6.78;;;;;;;9.87;76.54;102600.63;5068698;28;20044;-58
2021/12/13 07:37:54;;;;;;;9.57;6.03;;;;;;;9.85;76.13;102603.47;5067179;28;20087;-61
2021/12/13 07:40:28;;;;;;;10.77;6.13;;;;;;;9.86;75.64;102605.16;5053104;28;20106;-61
2021/12/13 07:43:10;;;;;;;8.73;6.07;;;;;;;9.86;76.18;102605.16;5063097;28;20053;-60
2021/12/13 07:45:45;;;;;;;9.90;6.07;;;;;;;9.86;75.80;102607.84;5066779;28;20087;-58
2021/12/13 07:48:16;;;;;;;7.93;5.72;;;;;;;9.85;75.71;102600.78;5066684;28;20044;-60
2021/12/13 07:50:48;;;;;;;9.35;6.40;;;;;;;9.86;75.72;102613.19;5064877;28;20056;-60
2021/12/13 07:53:18;;;;;;;7.93;5.80;;;;;;;9.78;76.00;102603.34;5063854;28;20084;-59
2021/12/13 07:55:49;;;;;;;10.23;6.18;;;;;;;9.86;76.00;102623.94;5055490;28;20076;-61
2021/12/13 07:58:33;;;;;;;8.98;5.80;;;;;;;9.85;75.70;102619.59;5061257;28;20152;-60
2021/12/13 08:01:15;;;;;;;8.55;6.38;;;;;;;9.85;76.04;102624.13;5066335;28;20049;-61
2021/12/13 08:03:47;;;;;;;11.27;6.72;;;;;;;9.86;76.02;102617.75;5068228;28;20040;-63
2021/12/13 08:06:16;;;;;;;7.15;4.80;;;;;;;9.87;75.48;102622.09;4706145;28;10000635;-60
2021/12/13 08:08:50;;;;;;;10.57;5.82;;;;;;;9.91;76.22;102623.44;5047876;28;20071;-63
2021/12/13 08:11:19;;;;;;;9.77;5.57;;;;;;;10.02;75.68;102623.03;5054325;28;20095;-63
2021/12/13 08:14:00;;;;;;;9.32;6.30;;;;;;;10.17;74.61;102620.47;5045704;28;20057;-64
2021/12/13 08:16:35;;;;;;;9.05;5.32;;;;;;;10.31;74.55;102617.06;5055268;28;20045;-63
2021/12/13 08:19:09;;;;;;;10.93;5.97;;;;;;;10.47;73.47;102619.63;5057446;28;20057;-61
2021/12/13 08:21:40;;;;;;;6.22;4.95;;;;;;;10.61;73.21;102623.38;5057275;28;20045;-64
2021/12/13 08:24:18;;;;;;;8.43;5.47;;;;;;;10.75;72.53;102623.44;5048659;28;20077;-63
2021/12/13 08:26:46;;;;;;;6.13;4.50;;;;;;;10.94;71.70;102624.81;5053026;28;20092;-62
2021/12/13 08:29:21;;;;;;;6.72;5.28;;;;;;;11.06;71.20;102628.75;5056301;28;20045;-62
2021/12/13 08:31:53;;;;;;;7.95;4.82;;;;;;;11.18;70.56;102631.84;5052891;28;20167;-64
2021/12/13 08:34:27;;;;;;;6.70;4.30;;;;;;;11.30;70.31;102627.69;5054059;28;20073;-60
2021/12/13 08:36:56;;;;;;;6.78;4.68;;;;;;;11.39;69.79;102631.97;5050725;28;20092;-63
2021/12/13 08:39:26;;;;;;;6.95;5.03;;;;;;;11.44;69.83;102626.03;5062629;28;20048;-63
2021/12/13 08:41:57;;;;;;;6.57;5.10;;;;;;;11.50;69.80;102622.63;5059843;28;20110;-62
2021/12/13 08:44:30;;;;;;;6.15;4.07;;;;;;;11.48;69.45;102610.34;5057001;28;21257;-63
2021/12/13 08:47:04;;;;;;;6.70;4.90;;;;;;;11.53;69.46;102624.09;5059035;28;20080;-59
2021/12/13 08:49:36;;;;;;;6.50;4.35;;;;;;;11.48;69.44;102619.28;5067271;28;20053;-63
2021/12/13 08:52:12;;;;;;;7.07;4.60;;;;;;;11.38;69.89;102626.78;5071336;28;20060;-62
2021/12/13 08:54:46;;;;;;;5.57;4.10;;;;;;;11.23;70.52;102629.44;5068792;28;20080;-63
2021/12/13 08:57:31;;;;;;;8.25;4.95;;;;;;;11.08;70.98;102634.78;5064380;28;20069;-62
2021/12/13 09:00:01;;;;;;;6.72;4.55;;;;;;;10.98;71.56;102628.81;5065455;28;20072;-62
2021/12/13 09:02:37;;;;;;;8.10;4.78;;;;;;;10.86;71.78;102622.19;5070277;28;20106;-63
2021/12/13 09:05:10;;;;;;;7.47;4.95;;;;;;;10.80;72.17;102620.22;5056346;28;20049;-62
2021/12/13 09:07:49;;;;;;;5.80;4.20;;;;;;;10.72;72.61;102628.34;5057671;28;20045;-62
2021/12/13 09:10:17;;;;;;;6.82;4.22;;;;;;;10.67;72.85;102626.19;5065401;28;20049;-62
2021/12/13 09:12:46;;;;;;;6.07;4.38;;;;;;;10.59;72.99;102628.94;5066462;28;20179;-62
2021/12/13 09:15:21;;;;;;;5.93;4.13;;;;;;;10.54;73.18;102639.41;5076138;28;20041;-62
2021/12/13 09:17:52;;;;;;;5.15;3.88;;;;;;;10.49;73.38;102633.72;5067799;28;20056;-63
2021/12/13 09:20:24;;;;;;;7.07;4.35;;;;;;;10.45;73.42;102635.09;5063640;28;20092;-63
2021/12/13 09:22:54;;;;;;;7.72;4.78;;;;;;;10.43;73.35;102634.41;5064065;28;20052;-62
2021/12/13 09:25:30;;;;;;;7.85;4.05;;;;;;;10.38;73.47;102634.16;5063954;28;20045;-62
2021/12/13 09:28:02;;;;;;;6.45;4.07;;;;;;;10.36;73.68;102633.50;5057011;28;20080;-63
2021/12/13 09:30:38;;;;;;;5.80;4.05;;;;;;;10.31;73.81;102634.00;5060491;28;20053;-56
2021/12/13 09:33:14;;;;;;;6.35;4.03;;;;;;;10.32;74.36;102640.22;5060256;28;20115;-62
2021/12/13 09:35:46;;;;;;;5.65;3.92;;;;;;;10.29;73.91;102657.53;5059354;28;20037;-62
2021/12/13 09:38:46;;;;;;;6.60;3.70;;;;;;;10.30;74.25;102661.06;5055602;28;20072;-61
2021/12/13 09:41:30;;;;;;;4.72;3.08;;;;;;;10.25;74.26;102661.59;5061796;28;20045;-62
2021/12/13 09:44:03;;;;;;;5.28;3.67;;;;;;;10.24;74.41;102659.91;5075525;28;20048;-63
2021/12/13 09:46:36;;;;;;;6.97;4.13;;;;;;;10.23;74.38;102668.16;5065779;28;20045;-58
2021/12/13 09:49:10;;;;;;;6.25;3.63;;;;;;;10.22;74.76;102682.59;5061162;28;20182;-60
2021/12/13 09:51:44;;;;;;;5.20;3.38;;;;;;;10.21;74.76;102683.59;5064503;28;20049;-63
2021/12/13 09:54:15;;;;;;;5.32;3.92;;;;;;;10.20;74.84;102685.47;5062688;28;20111;-61
2021/12/13 09:56:49;;;;;;;5.43;3.92;;;;;;;10.21;74.62;102697.03;5064805;28;20112;-63
2021/12/13 09:59:22;;;;;;;5.85;3.83;;;;;;;10.11;74.72;102683.78;5059151;28;20052;-61
2021/12/13 10:01:52;;;;;;;6.63;3.17;;;;;;;10.20;74.40;102696.22;5064163;28;20059;-62
2021/12/13 10:04:28;;;;;;;5.57;3.58;;;;;;;10.19;74.87;102701.72;5073386;28;20057;-61
2021/12/13 10:07:02;;;;;;;6.43;3.15;;;;;;;10.19;74.94;102710.63;5058008;28;20076;-59
2021/12/13 10:09:34;;;;;;;5.10;3.53;;;;;;;10.17;75.04;102701.91;5060226;28;20045;-63
2021/12/13 10:12:07;;;;;;;6.80;3.45;;;;;;;10.28;74.37;102706.94;5064163;28;20052;-63
2021/12/13 10:14:39;;;;;;;7.78;3.83;;;;;;;10.40;73.84;102688.56;5065846;28;20049;-62
2021/12/13 10:17:09;;;;;;;5.43;3.33;;;;;;;10.56;73.04;102696.50;5056604;28;20060;-61
2021/12/13 10:19:41;;;;;;;4.68;3.28;;;;;;;10.72;72.44;102695.59;5050598;28;20049;-64
2021/12/13 10:22:12;;;;;;;3.35;2.45;;;;;;;10.86;72.17;102688.59;5063103;28;20053;-62
2021/12/13 10:24:44;;;;;;;4.07;2.92;;;;;;;10.94;71.44;102688.53;5074190;28;20044;-60
2021/12/13 10:27:18;;;;;;;3.90;2.85;;;;;;;10.92;71.56;102683.34;5063155;28;20041;-62
2021/12/13 10:29:50;;;;;;;4.30;2.85;;;;;;;10.85;71.63;102679.69;5065098;28;20069;-62
2021/12/13 10:32:24;;;;;;;4.13;2.78;;;;;;;10.79;71.79;102688.47;5063302;28;20047;-59
2021/12/13 10:34:59;;;;;;;4.78;2.70;;;;;;;10.72;72.41;102695.59;5051187;28;20054;-63
2021/12/13 10:37:34;;;;;;;5.10;2.92;;;;;;;10.65;72.48;102686.56;5059565;28;20049;-62
2021/12/13 10:40:10;;;;;;;7.55;2.90;;;;;;;10.58;72.91;102675.66;5069552;28;20056;-56
2021/12/13 10:42:41;;;;;;;3.40;2.47;;;;;;;10.54;72.79;102687.78;5063791;28;20048;-60
2021/12/13 10:45:15;;;;;;;4.40;2.80;;;;;;;10.50;72.90;102686.47;5069131;28;20327;-63
2021/12/13 10:47:48;;;;;;;5.15;2.50;;;;;;;10.48;73.26;102685.81;5063457;28;20056;-63
2021/12/13 10:50:24;;;;;;;4.78;2.65;;;;;;;10.46;73.50;102692.38;5060752;28;20045;-62
2021/12/13 10:52:53;;;;;;;3.58;2.20;;;;;;;10.44;73.42;102679.94;5062272;28;20461;-64
2021/12/13 10:55:25;;;;;;;4.32;2.72;;;;;;;10.41;73.86;102672.22;5063577;28;20120;-64
2021/12/13 10:57:54;;;;;;;5.65;2.55;;;;;;;10.38;73.98;102666.41;5057198;28;20048;-65
2021/12/13 11:00:25;;;;;;;3.67;2.45;;;;;;;10.35;74.05;102675.66;5062858;28;20521;-65
2021/12/13 11:02:54;;;;;;;4.22;3.17;;;;;;;10.32;73.62;102672.47;5062503;28;20159;-65
2021/12/13 11:05:28;;;;;;;3.53;2.30;;;;;;;10.32;73.76;102680.53;5055686;28;20049;-65
2021/12/13 11:07:56;;;;;;;4.45;2.70;;;;;;;10.31;74.02;102687.75;5063133;28;20041;-65
2021/12/13 11:10:29;;;;;;;3.85;2.55;;;;;;;10.29;74.29;102681.72;5057536;28;20050;-59
2021/12/13 11:13:19;;;;;;;4.45;2.70;;;;;;;10.27;74.14;102681.06;5070282;28;20063;-64
2021/12/13 11:15:50;;;;;;;3.67;2.13;;;;;;;10.28;74.22;102668.47;5060273;28;20082;-64
2021/12/13 11:18:27;;;;;;;3.58;2.30;;;;;;;10.26;74.37;102665.94;5068013;28;20102;-63
2021/12/13 11:21:01;;;;;;;4.30;2.65;;;;;;;10.27;74.51;102661.41;5067245;28;20048;-66
2021/12/13 11:23:30;;;;;;;4.78;2.50;;;;;;;10.25;74.03;102658.06;5075767;28;20060;-65
2021/12/13 11:26:00;;;;;;;4.30;2.25;;;;;;;10.23;74.12;102657.41;5065399;28;20057;-63
2021/12/13 11:28:31;;;;;;;3.40;2.25;;;;;;;10.27;74.11;102664.94;5062821;28;20044;-64
2021/12/13 11:31:01;;;;;;;3.60;2.10;;;;;;;10.26;74.50;102657.91;5066327;28;20052;-61
2021/12/13 11:34:15;;;;;;;3.22;2.30;;;;;;;10.25;74.65;102663.44;5066179;28;20115;-61
2021/12/13 11:37:20;;;;;;;3.00;2.13;;;;;;;10.24;74.48;102667.13;5050980;28;20052;-63
2021/12/13 11:40:05;;;;;;;3.03;2.20;;;;;;;10.15;74.69;102644.81;5037327;28;20059;-63
2021/12/13 11:42:54;;;;;;;4.53;2.50;;;;;;;10.24;74.52;102659.91;5061502;28;20172;-65
2021/12/13 11:45:49;;;;;;;3.75;1.98;;;;;;;10.23;74.47;102660.09;5059765;28;20094;-64
2021/12/13 11:48:50;;;;;;;3.63;2.20;;;;;;;10.23;74.47;102660.09;5061319;28;20045;-64
2021/12/13 11:51:57;;;;;;;3.35;2.10;;;;;;;10.22;74.47;102658.41;5053515;28;20477;-63
2021/12/13 11:54:49;;;;;;;3.73;1.90;;;;;;;10.12;74.07;102642.47;4495805;28;10001813;-62
2021/12/13 11:57:56;;;;;;;6.03;1.70;;;;;;;10.19;74.65;102659.56;5058568;28;20044;-64